createdAt,value
2023-05-18T00:01:56.450Z,-23413.56
2023-05-18T00:03:59.187Z,-23411.66
2023-05-18T00:06:04.562Z,-23409.91
2023-05-18T00:08:08.724Z,-23406.28
2023-05-18T00:10:12.675Z,-23405.78
2023-05-18T00:12:15.486Z,-23403.25
2023-05-18T00:14:19.880Z,-23403.25
2023-05-18T00:16:22.700Z,-23400.38
2023-05-18T00:18:26.649Z,-23396.41
2023-05-18T00:20:30.067Z,-23395.16
2023-05-18T00:22:32.902Z,-23395.00
2023-05-18T00:24:37.049Z,-23391.16
2023-05-18T00:26:40.546Z,-23389.75
2023-05-18T00:28:43.248Z,-23388.63
2023-05-18T00:30:47.374Z,-23387.69
2023-05-18T00:32:50.229Z,-23387.19
2023-05-18T00:34:53.091Z,-23388.16
2023-05-18T00:36:55.724Z,-23388.16
2023-05-18T00:38:58.434Z,-23385.28
2023-05-18T00:41:01.321Z,-23384.97
2023-05-18T00:43:04.050Z,-23385.44
2023-05-18T00:45:08.240Z,-23387.03
2023-05-18T00:47:12.421Z,-23384.66
2023-05-18T00:49:15.393Z,-23386.09
2023-05-18T00:51:18.879Z,-23384.34
2023-05-18T00:53:21.613Z,-23384.97
2023-05-18T00:55:24.523Z,-23381.97
2023-05-18T00:57:28.658Z,-23384.03
2023-05-18T00:59:32.803Z,-23383.53
2023-05-18T01:01:36.309Z,-23382.91
2023-05-18T01:03:43.096Z,-23383.22
2023-05-18T01:05:45.845Z,-23380.53
2023-05-18T01:07:50.528Z,-23381.47
2023-05-18T01:09:53.437Z,-23379.25
2023-05-18T01:12:05.980Z,-23376.72
2023-05-18T01:14:30.627Z,-23377.97
2023-05-18T01:16:46.586Z,-23376.41
2023-05-18T01:19:00.781Z,-23375.75
2023-05-18T01:21:19.272Z,-23376.72
2023-05-18T01:23:46.793Z,-23376.41
2023-05-18T01:26:02.014Z,-23375.44
2023-05-18T01:28:10.117Z,-23376.88
2023-05-18T01:30:15.094Z,-23376.56
2023-05-18T01:32:19.366Z,-23378.78
2023-05-18T01:34:22.015Z,-23377.03
2023-05-18T01:36:24.709Z,-23375.44
2023-05-18T01:38:29.366Z,-23374.50
2023-05-18T01:40:36.225Z,-23372.09
2023-05-18T01:42:45.981Z,-23372.72
2023-05-18T01:44:53.667Z,-23371.47
2023-05-18T01:47:01.223Z,-23369.06
2023-05-18T01:49:12.361Z,-23370.34
2023-05-18T01:51:18.504Z,-23368.91
2023-05-18T01:53:26.010Z,-23368.13
2023-05-18T01:55:31.769Z,-23369.72
2023-05-18T01:57:37.413Z,-23371.94
2023-05-18T01:59:42.068Z,-23368.91
2023-05-18T02:01:45.266Z,-23366.38
2023-05-18T02:03:48.076Z,-23367.34
2023-05-18T02:05:50.948Z,-23364.63
2023-05-18T02:07:53.687Z,-23366.06
2023-05-18T02:09:56.452Z,-23363.03
2023-05-18T02:11:59.232Z,-23364.00
2023-05-18T02:14:01.892Z,-23368.44
2023-05-18T02:16:06.582Z,-23368.44
2023-05-18T02:18:09.350Z,-23365.25
2023-05-18T02:20:12.453Z,-23365.44
2023-05-18T02:22:15.105Z,-23364.63
2023-05-18T02:24:18.324Z,-23365.25
2023-05-18T02:26:21.018Z,-23370.81
2023-05-18T02:28:24.067Z,-23368.28
2023-05-18T02:30:26.916Z,-23370.81
2023-05-18T02:32:32.537Z,-23369.06
2023-05-18T02:34:38.198Z,-23371.00
2023-05-18T02:36:42.598Z,-23372.56
2023-05-18T02:38:45.475Z,-23372.25
2023-05-18T02:40:49.374Z,-23371.00
2023-05-18T02:42:52.046Z,-23374.16
2023-05-18T02:44:56.205Z,-23372.72
2023-05-18T02:46:58.865Z,-23375.13
2023-05-18T02:49:03.204Z,-23373.22
2023-05-18T02:51:06.362Z,-23370.50
2023-05-18T02:53:09.116Z,-23368.75
2023-05-18T02:55:13.888Z,-23373.06
2023-05-18T02:57:16.823Z,-23370.19
2023-05-18T02:59:19.708Z,-23370.34
2023-05-18T03:01:22.566Z,-23370.19
2023-05-18T03:03:25.732Z,-23371.00
2023-05-18T03:05:30.116Z,-23367.34
2023-05-18T03:07:33.147Z,-23365.56
2023-05-18T03:09:36.100Z,-23362.06
2023-05-18T03:11:38.758Z,-23364.16
2023-05-18T03:13:41.404Z,-23361.75
2023-05-18T03:15:45.456Z,-23361.13
2023-05-18T03:17:49.588Z,-23358.75
2023-05-18T03:19:52.377Z,-23358.75
2023-05-18T03:21:57.961Z,-23358.59
2023-05-18T03:24:00.659Z,-23357.94
2023-05-18T03:26:03.932Z,-23359.22
2023-05-18T03:28:07.043Z,-23357.47
2023-05-18T03:30:10.725Z,-23358.44
2023-05-18T03:32:13.398Z,-23357.00
2023-05-18T03:34:16.129Z,-23359.84
2023-05-18T03:36:18.840Z,-23361.13
2023-05-18T03:38:23.107Z,-23358.91
2023-05-18T03:40:25.948Z,-23361.59
2023-05-18T03:42:28.906Z,-23358.25
2023-05-18T03:44:31.868Z,-23357.47
2023-05-18T03:46:34.671Z,-23356.50
2023-05-18T03:48:37.374Z,-23357.47
2023-05-18T03:50:40.687Z,-23357.00
2023-05-18T03:52:44.780Z,-23355.25
2023-05-18T03:54:49.160Z,-23354.13
2023-05-18T03:56:52.282Z,-23354.75
2023-05-18T03:58:55.103Z,-23354.94
2023-05-18T04:00:57.940Z,-23353.97
2023-05-18T04:03:03.460Z,-23354.28
2023-05-18T04:05:06.956Z,-23351.25
2023-05-18T04:07:10.062Z,-23353.50
2023-05-18T04:09:14.713Z,-23355.56
2023-05-18T04:11:19.040Z,-23353.81
2023-05-18T04:13:21.701Z,-23358.09
2023-05-18T04:15:24.485Z,-23357.00
2023-05-18T04:17:27.174Z,-23355.88
2023-05-18T04:19:30.069Z,-23358.25
2023-05-18T04:21:35.338Z,-23358.44
2023-05-18T04:23:39.083Z,-23358.25
2023-05-18T04:25:41.836Z,-23361.75
2023-05-18T04:27:46.108Z,-23365.91
2023-05-18T04:29:49.242Z,-23376.56
2023-05-18T04:31:53.617Z,-23385.44
2023-05-18T04:33:57.472Z,-23385.28
2023-05-18T04:36:04.932Z,-23404.34
2023-05-18T04:40:38.271Z,-23412.63
2023-05-18T04:42:45.361Z,-23408.16
2023-05-18T04:44:52.196Z,-23411.03
2023-05-18T04:46:55.135Z,-23412.94
2023-05-18T04:48:58.862Z,-23418.34
2023-05-18T04:51:01.512Z,-23420.72
2023-05-18T04:53:06.041Z,-23424.38
2023-05-18T04:55:10.943Z,-23426.59
2023-05-18T04:57:14.066Z,-23419.44
2023-05-18T04:59:16.817Z,-23422.78
2023-05-18T05:01:21.121Z,-23426.13
2023-05-18T05:03:24.089Z,-23446.59
2023-05-18T05:05:27.448Z,-23433.28
2023-05-18T05:07:30.291Z,-23446.59
2023-05-18T05:09:33.069Z,-23440.56
2023-05-18T05:11:35.821Z,-23432.63
2023-05-18T05:13:38.533Z,-23431.34
2023-05-18T05:15:41.340Z,-23424.69
2023-05-18T05:17:45.550Z,-23422.47
2023-05-18T05:19:48.212Z,-23412.31
2023-05-18T05:21:50.868Z,-23416.09
2023-05-18T05:23:53.801Z,-23415.16
2023-05-18T05:25:56.487Z,-23412.78
2023-05-18T05:27:59.147Z,-23415.97
2023-05-18T05:30:02.022Z,-23423.72
2023-05-18T05:32:05.264Z,-23420.41
2023-05-18T05:34:11.764Z,-23428.34
2023-05-18T05:36:14.534Z,-23416.91
2023-05-18T05:38:17.174Z,-23423.41
2023-05-18T05:40:20.353Z,-23428.50
2023-05-18T05:42:22.986Z,-23425.63
2023-05-18T05:44:25.660Z,-23434.69
2023-05-18T05:46:28.454Z,-23439.94
2023-05-18T05:48:31.074Z,-23452.78
2023-05-18T05:50:35.285Z,-23453.72
2023-05-18T05:52:37.915Z,-23451.34
2023-05-18T05:54:41.908Z,-23459.44
2023-05-18T05:56:44.766Z,-23455.16
2023-05-18T05:58:47.490Z,-23470.53
2023-05-18T06:00:50.818Z,-23478.00
2023-05-18T06:02:53.506Z,-23476.72
2023-05-18T06:04:56.377Z,-23472.59
2023-05-18T06:07:00.724Z,-23471.97
2023-05-18T06:09:04.460Z,-23473.41
2023-05-18T06:11:08.226Z,-23477.38
2023-05-18T06:13:12.728Z,-23473.25
2023-05-18T06:15:15.564Z,-23482.44
2023-05-18T06:17:18.295Z,-23491.31
2023-05-18T06:19:21.064Z,-23488.78
2023-05-18T06:21:24.002Z,-23486.72
2023-05-18T06:23:28.075Z,-23482.44
2023-05-18T06:25:31.100Z,-23508.59
2023-05-18T06:27:34.136Z,-23489.25
2023-05-18T06:29:36.893Z,-23495.91
2023-05-18T06:31:39.616Z,-23502.25
2023-05-18T06:33:42.435Z,-23517.47
2023-05-18T06:35:45.081Z,-23528.06
2023-05-18T06:37:47.742Z,-23520.16
2023-05-18T06:39:51.731Z,-23511.59
2023-05-18T06:41:54.383Z,-23521.56
2023-05-18T06:44:00.184Z,-23512.22
2023-05-18T06:46:02.862Z,-23525.06
2023-05-18T06:48:06.278Z,-23515.41
2023-05-18T06:50:09.484Z,-23500.19
2023-05-18T06:52:13.639Z,-23506.22
2023-05-18T06:54:16.349Z,-23542.00
2023-05-18T06:56:21.868Z,-23546.75
2023-05-18T06:58:24.506Z,-23555.59
2023-05-18T07:00:27.166Z,-23532.19
2023-05-18T07:02:29.888Z,-23568.25
2023-05-18T07:04:32.567Z,-23557.50
2023-05-18T07:06:35.235Z,-23536.59
2023-05-18T07:08:37.936Z,-23550.84
2023-05-18T07:10:41.079Z,-23557.97
2023-05-18T07:12:45.077Z,-23572.34
2023-05-18T07:14:48.042Z,-23574.56
2023-05-18T07:16:50.723Z,-23561.44
2023-05-18T07:18:53.520Z,-23551.47
2023-05-18T07:20:56.226Z,-23561.94
2023-05-18T07:22:59.822Z,-23560.81
2023-05-18T07:25:02.494Z,-23552.13
2023-05-18T07:27:05.739Z,-23580.91
2023-05-18T07:29:09.803Z,-23575.53
2023-05-18T07:31:14.352Z,-23604.91
2023-05-18T07:33:17.150Z,-23602.69
2023-05-18T07:35:21.581Z,-23615.97
2023-05-18T07:37:24.304Z,-23615.66
2023-05-18T07:39:29.401Z,-23611.22
2023-05-18T07:41:32.315Z,-23609.97
2023-05-18T07:43:35.017Z,-23653.06
2023-05-18T07:45:39.047Z,-23624.81
2023-05-18T07:47:41.938Z,-23619.28
2023-05-18T07:49:44.629Z,-23612.81
2023-05-18T07:51:47.249Z,-23631.75
2023-05-18T07:53:49.962Z,-23623.22
2023-05-18T07:55:52.666Z,-23615.34
2023-05-18T07:57:55.347Z,-23670.09
2023-05-18T07:59:58.028Z,-23641.38
2023-05-18T08:02:02.208Z,-23645.97
2023-05-18T08:04:05.214Z,-23649.91
2023-05-18T08:06:08.385Z,-23663.47
2023-05-18T08:08:11.915Z,-23630.50
2023-05-18T08:10:14.770Z,-23639.00
2023-05-18T08:12:17.435Z,-23627.34
2023-05-18T08:14:20.273Z,-23660.16
2023-05-18T08:16:23.040Z,-23681.44
2023-05-18T08:18:27.875Z,-23658.25
2023-05-18T08:20:30.685Z,-23664.09
2023-05-18T08:22:33.347Z,-23626.41
2023-05-18T08:24:36.047Z,-23687.56
2023-05-18T08:26:38.744Z,-23689.47
2023-05-18T08:28:41.890Z,-23694.50
2023-05-18T08:30:44.511Z,-23687.41
2023-05-18T08:32:47.192Z,-23661.09
2023-05-18T08:34:51.761Z,-23664.56
2023-05-18T08:36:54.398Z,-23689.63
2023-05-18T08:38:57.099Z,-23696.41
2023-05-18T08:41:07.108Z,-23683.16
2023-05-18T08:43:18.973Z,-23692.78
2023-05-18T08:45:28.664Z,-23690.09
2023-05-18T08:47:32.364Z,-23694.50
2023-05-18T08:49:35.961Z,-23685.38
2023-05-18T08:51:43.561Z,-23667.41
2023-05-18T08:53:50.612Z,-23670.88
2023-05-18T08:55:55.257Z,-23693.56
2023-05-18T08:58:00.368Z,-23690.09
2023-05-18T09:00:05.301Z,-23691.06
2023-05-18T09:02:08.274Z,-23648.78
2023-05-18T09:04:12.702Z,-23633.66
2023-05-18T09:06:15.960Z,-23631.59
2023-05-18T09:08:20.095Z,-23640.91
2023-05-18T09:10:25.173Z,-23616.13
2023-05-18T09:12:29.696Z,-23622.28
2023-05-18T09:14:33.180Z,-23659.22
2023-05-18T09:16:36.009Z,-23645.66
2023-05-18T09:18:38.728Z,-23677.81
2023-05-18T09:20:41.730Z,-23657.63
2023-05-18T09:22:44.808Z,-23652.59
2023-05-18T09:24:50.151Z,-23626.06
2023-05-18T09:26:52.927Z,-23614.06
2023-05-18T09:28:56.078Z,-23604.59
2023-05-18T09:30:58.784Z,-23605.22
2023-05-18T09:33:01.595Z,-23615.97
2023-05-18T09:35:08.625Z,-23627.34
2023-05-18T09:37:11.403Z,-23608.69
2023-05-18T09:39:14.160Z,-23617.22
2023-05-18T09:41:19.126Z,-23631.13
2023-05-18T09:43:22.264Z,-23618.97
2023-05-18T09:45:26.597Z,-23608.38
2023-05-18T09:47:29.402Z,-23654.47
2023-05-18T09:49:32.187Z,-23686.16
2023-05-18T09:51:38.497Z,-23669.63
2023-05-18T09:53:41.566Z,-23693.56
2023-05-18T09:55:48.684Z,-23691.69
2023-05-18T09:57:53.935Z,-23698.13
2023-05-18T09:59:57.908Z,-23648.31
2023-05-18T10:02:02.382Z,-23665.03
2023-05-18T10:04:06.370Z,-23669.94
2023-05-18T10:06:10.497Z,-23672.59
2023-05-18T10:08:15.034Z,-23652.91
2023-05-18T10:10:20.315Z,-23687.25
2023-05-18T10:12:24.548Z,-23671.50
2023-05-18T10:14:33.553Z,-23669.63
2023-05-18T10:16:36.382Z,-23690.72
2023-05-18T10:18:40.732Z,-23681.28
2023-05-18T10:20:44.660Z,-23709.31
2023-05-18T10:22:49.305Z,-23691.06
2023-05-18T10:24:52.963Z,-23686.63
2023-05-18T10:27:01.322Z,-23685.53
2023-05-18T10:29:05.758Z,-23640.75
2023-05-18T10:31:10.166Z,-23628.28
2023-05-18T10:33:24.447Z,-23647.84
2023-05-18T10:35:31.994Z,-23679.38
2023-05-18T10:37:36.958Z,-23671.81
2023-05-18T10:39:40.877Z,-23692.47
2023-05-18T10:41:44.982Z,-23678.59
2023-05-18T10:43:48.996Z,-23662.03
2023-05-18T10:45:54.860Z,-23662.69
2023-05-18T10:48:01.701Z,-23648.16
2023-05-18T10:50:06.202Z,-23662.03
2023-05-18T10:52:10.562Z,-23664.88
2023-05-18T10:54:14.750Z,-23690.88
2023-05-18T10:56:17.796Z,-23665.19
2023-05-18T10:58:22.491Z,-23670.88
2023-05-18T11:00:25.459Z,-23676.06
2023-05-18T11:02:28.875Z,-23692.31
2023-05-18T11:04:33.386Z,-23678.75
2023-05-18T11:06:36.425Z,-23691.34
2023-05-18T11:08:48.779Z,-23710.09
2023-05-18T11:10:59.842Z,-23699.56
2023-05-18T11:13:02.894Z,-23681.44
2023-05-18T11:15:06.947Z,-23709.63
2023-05-18T11:17:20.499Z,-23693.25
2023-05-18T11:19:27.073Z,-23696.88
2023-05-18T11:21:52.890Z,-23704.75
2023-05-18T11:24:15.934Z,-23674.34
2023-05-18T11:26:18.650Z,-23680.66
2023-05-18T11:28:23.657Z,-23704.75
2023-05-18T11:30:31.081Z,-23703.00
2023-05-18T11:32:34.211Z,-23705.38
2023-05-18T11:34:46.628Z,-23692.94
2023-05-18T11:36:56.072Z,-23684.75
2023-05-18T11:39:07.719Z,-23692.31
2023-05-18T11:41:28.280Z,-23710.88
2023-05-18T11:43:31.287Z,-23703.00
2023-05-18T11:45:34.867Z,-23699.06
2023-05-18T11:47:40.550Z,-23709.63
2023-05-18T11:49:45.170Z,-23713.72
2023-05-18T11:52:02.295Z,-23709.63
2023-05-18T11:54:10.007Z,-23697.97
2023-05-18T11:56:13.944Z,-23714.19
2023-05-18T11:58:20.323Z,-23703.63
2023-05-18T12:00:25.053Z,-23697.34
2023-05-18T12:02:32.083Z,-23711.81
2023-05-18T12:04:36.380Z,-23680.66
2023-05-18T12:06:39.545Z,-23691.69
2023-05-18T12:08:44.018Z,-23717.03
2023-05-18T12:10:48.280Z,-23732.75
2023-05-18T12:12:53.838Z,-23723.16
2023-05-18T12:14:57.936Z,-23707.41
2023-05-18T12:17:01.319Z,-23701.44
2023-05-18T12:19:04.085Z,-23705.84
2023-05-18T12:21:07.324Z,-23706.94
2023-05-18T12:23:10.007Z,-23720.34
2023-05-18T12:25:13.115Z,-23708.69
2023-05-18T12:27:17.219Z,-23710.09
2023-05-18T12:29:22.915Z,-23726.16
2023-05-18T12:31:26.381Z,-23733.84
2023-05-18T12:33:29.379Z,-23726.78
2023-05-18T12:35:33.388Z,-23720.50
2023-05-18T12:37:45.250Z,-23707.09
2023-05-18T12:39:53.106Z,-23696.72
2023-05-18T12:42:09.042Z,-23694.66
2023-05-18T12:44:13.088Z,-23697.81
2023-05-18T12:46:15.947Z,-23706.78
2023-05-18T12:48:18.807Z,-23725.06
2023-05-18T12:50:21.804Z,-23697.03
2023-05-18T12:52:24.511Z,-23692.00
2023-05-18T12:54:30.196Z,-23705.38
2023-05-18T12:56:52.650Z,-23707.56
2023-05-18T12:58:57.471Z,-23715.13
2023-05-18T13:01:08.381Z,-23707.41
2023-05-18T13:03:15.670Z,-23727.72
2023-05-18T13:05:25.171Z,-23711.50
2023-05-18T13:07:28.039Z,-23713.41
2023-05-18T13:09:30.838Z,-23726.31
2023-05-18T13:11:34.695Z,-23720.97
2023-05-18T13:13:37.385Z,-23716.88
2023-05-18T13:15:41.157Z,-23702.69
2023-05-18T13:17:58.147Z,-23699.88
2023-05-18T13:20:00.993Z,-23717.34
2023-05-18T13:22:03.730Z,-23728.03
2023-05-18T13:24:07.105Z,-23724.72
2023-05-18T13:26:09.738Z,-23745.03
2023-05-18T13:28:13.779Z,-23726.94
2023-05-18T13:30:17.957Z,-23718.91
2023-05-18T13:32:20.932Z,-23717.34
2023-05-18T13:34:24.953Z,-23697.66
2023-05-18T13:36:29.705Z,-23694.81
2023-05-18T13:38:35.519Z,-23698.13
2023-05-18T13:40:38.948Z,-23707.72
2023-05-18T13:42:41.598Z,-23714.97
2023-05-18T13:44:44.315Z,-23719.06
2023-05-18T13:46:46.966Z,-23729.13
2023-05-18T13:48:49.671Z,-23719.88
2023-05-18T13:50:53.726Z,-23716.53
2023-05-18T13:52:56.586Z,-23716.22
2023-05-18T13:54:59.270Z,-23735.28
2023-05-18T13:57:02.293Z,-23743.78
2023-05-18T13:59:05.052Z,-23727.88
2023-05-18T14:01:12.765Z,-23714.66
2023-05-18T14:03:17.626Z,-23714.03
2023-05-18T14:05:20.541Z,-23717.66
2023-05-18T14:07:24.907Z,-23725.38
2023-05-18T14:09:28.199Z,-23721.91
2023-05-18T14:11:34.428Z,-23719.22
2023-05-18T14:13:37.203Z,-23728.03
2023-05-18T14:15:39.938Z,-23721.75
2023-05-18T14:17:42.883Z,-23721.59
2023-05-18T14:19:45.651Z,-23720.97
2023-05-18T14:21:48.267Z,-23715.91
2023-05-18T14:23:52.246Z,-23703.81
2023-05-18T14:25:56.030Z,-23709.47
2023-05-18T14:27:58.758Z,-23719.69
2023-05-18T14:30:01.603Z,-23715.28
2023-05-18T14:32:04.410Z,-23713.41
2023-05-18T14:34:07.155Z,-23720.34
2023-05-18T14:36:09.983Z,-23726.16
2023-05-18T14:38:13.017Z,-23735.44
2023-05-18T14:40:17.031Z,-23727.09
2023-05-18T14:42:19.864Z,-23726.94
2023-05-18T14:44:22.702Z,-23725.22
2023-05-18T14:46:25.401Z,-23715.13
2023-05-18T14:48:28.111Z,-23721.75
2023-05-18T14:50:30.912Z,-23720.00
2023-05-18T14:52:33.694Z,-23718.75
2023-05-18T14:54:36.620Z,-23709.63
2023-05-18T14:56:41.025Z,-23708.06
2023-05-18T14:58:43.713Z,-23699.25
2023-05-18T15:00:46.482Z,-23697.50
2023-05-18T15:02:49.369Z,-23700.97
2023-05-18T15:04:52.147Z,-23701.75
2023-05-18T15:06:54.825Z,-23697.50
2023-05-18T15:08:57.563Z,-23696.09
2023-05-18T15:11:00.351Z,-23692.94
2023-05-18T15:13:04.784Z,-23693.88
2023-05-18T15:15:08.760Z,-23697.34
2023-05-18T15:17:12.413Z,-23693.25
2023-05-18T15:19:15.207Z,-23675.28
2023-05-18T15:21:18.146Z,-23686.31
2023-05-18T15:23:20.929Z,-23684.13
2023-05-18T15:25:23.678Z,-23682.22
2023-05-18T15:27:26.488Z,-23676.56
2023-05-18T15:29:30.636Z,-23676.69
2023-05-18T15:31:33.868Z,-23677.66
2023-05-18T15:33:41.986Z,-23683.63
2023-05-18T15:35:44.773Z,-23680.31
2023-05-18T15:37:47.500Z,-23676.38
2023-05-18T15:39:50.224Z,-23668.81
2023-05-18T15:41:52.951Z,-23671.19
2023-05-18T15:43:55.811Z,-23676.22
2023-05-18T15:45:59.929Z,-23669.13
2023-05-18T15:48:02.743Z,-23673.09
2023-05-18T15:50:06.264Z,-23675.91
2023-05-18T15:52:09.519Z,-23671.81
2023-05-18T15:54:12.249Z,-23669.63
2023-05-18T15:56:14.990Z,-23672.75
2023-05-18T15:58:17.859Z,-23678.13
2023-05-18T16:00:22.196Z,-23675.13
2023-05-18T16:02:26.362Z,-23671.50
2023-05-18T16:04:29.183Z,-23671.81
2023-05-18T16:06:31.908Z,-23667.09
2023-05-18T16:08:34.547Z,-23666.47
2023-05-18T16:10:37.314Z,-23666.47
2023-05-18T16:12:39.973Z,-23661.72
2023-05-18T16:14:42.632Z,-23661.41
2023-05-18T16:16:45.422Z,-23665.34
2023-05-18T16:18:49.733Z,-23663.47
2023-05-18T16:20:52.621Z,-23663.31
2023-05-18T16:22:55.688Z,-23658.25
2023-05-18T16:24:58.958Z,-23658.88
2023-05-18T16:27:02.166Z,-23658.56
2023-05-18T16:29:04.991Z,-23661.09
2023-05-18T16:31:10.990Z,-23661.56
2023-05-18T16:33:13.928Z,-23664.25
2023-05-18T16:35:18.208Z,-23658.75
2023-05-18T16:37:20.877Z,-23654.78
2023-05-18T16:39:25.367Z,-23655.41
2023-05-18T16:41:29.985Z,-23662.03
2023-05-18T16:43:32.961Z,-23658.88
2023-05-18T16:45:36.002Z,-23661.09
2023-05-18T16:47:39.413Z,-23654.16
2023-05-18T16:49:43.933Z,-23654.78
2023-05-18T16:51:47.913Z,-23654.47
2023-05-18T16:53:52.261Z,-23649.91
2023-05-18T16:55:54.911Z,-23651.31
2023-05-18T16:57:57.628Z,-23652.75
2023-05-18T17:00:00.909Z,-23650.06
2023-05-18T17:02:03.742Z,-23653.38
2023-05-18T17:04:06.588Z,-23650.53
2023-05-18T17:06:09.437Z,-23648.78
2023-05-18T17:08:14.024Z,-23650.22
2023-05-18T17:10:16.930Z,-23651.94
2023-05-18T17:12:19.701Z,-23650.84
2023-05-18T17:14:22.394Z,-23647.38
2023-05-18T17:16:26.578Z,-23643.44
2023-05-18T17:18:29.405Z,-23646.28
2023-05-18T17:20:32.262Z,-23645.00
2023-05-18T17:22:35.130Z,-23645.66
2023-05-18T17:24:39.318Z,-23644.38
2023-05-18T17:26:42.146Z,-23646.91
2023-05-18T17:28:44.793Z,-23647.84
2023-05-18T17:30:47.470Z,-23649.75
2023-05-18T17:32:50.953Z,-23648.94
2023-05-18T17:34:53.710Z,-23640.91
2023-05-18T17:36:56.458Z,-23643.59
2023-05-18T17:38:59.098Z,-23645.00
2023-05-18T17:41:04.150Z,-23642.81
2023-05-18T17:43:06.952Z,-23647.22
2023-05-18T17:45:10.937Z,-23645.16
2023-05-18T17:47:13.682Z,-23645.47
2023-05-18T17:49:16.841Z,-23652.91
2023-05-18T17:51:19.693Z,-23645.47
2023-05-18T17:53:22.568Z,-23642.81
2023-05-18T17:55:25.338Z,-23645.31
2023-05-18T17:57:30.140Z,-23645.78
2023-05-18T17:59:32.856Z,-23645.00
2023-05-18T18:01:35.905Z,-23645.66
2023-05-18T18:03:39.026Z,-23645.00
2023-05-18T18:05:41.952Z,-23642.97
2023-05-18T18:07:44.717Z,-23637.59
2023-05-18T18:09:47.361Z,-23640.28
2023-05-18T18:11:50.022Z,-23642.16
2023-05-18T18:13:54.517Z,-23645.00
2023-05-18T18:15:57.263Z,-23638.38
2023-05-18T18:17:59.939Z,-23641.22
2023-05-18T18:20:02.677Z,-23636.50
2023-05-18T18:22:05.778Z,-23636.50
2023-05-18T18:24:08.777Z,-23641.22
2023-05-18T18:26:11.986Z,-23641.53
2023-05-18T18:28:15.246Z,-23636.19
2023-05-18T18:30:19.436Z,-23634.13
2023-05-18T18:32:22.226Z,-23636.03
2023-05-18T18:34:24.922Z,-23628.59
2023-05-18T18:36:27.666Z,-23629.25
2023-05-18T18:38:30.453Z,-23631.13
2023-05-18T18:40:33.840Z,-23632.69
2023-05-18T18:42:36.865Z,-23631.75
2023-05-18T18:44:39.603Z,-23630.19
2023-05-18T18:46:43.770Z,-23627.66
2023-05-18T18:48:46.476Z,-23624.34
2023-05-18T18:50:49.369Z,-23626.53
2023-05-18T18:52:52.099Z,-23622.91
2023-05-18T18:54:54.809Z,-23620.41
2023-05-18T18:56:57.690Z,-23628.28
2023-05-18T18:59:00.353Z,-23623.72
2023-05-18T19:01:03.177Z,-23625.44
2023-05-18T19:03:07.339Z,-23623.88
2023-05-18T19:05:10.993Z,-23626.06
2023-05-18T19:07:13.743Z,-23622.28
2023-05-18T19:09:16.464Z,-23623.88
2023-05-18T19:11:21.850Z,-23622.44
2023-05-18T19:13:24.670Z,-23624.34
2023-05-18T19:15:27.403Z,-23622.75
2023-05-18T19:17:30.187Z,-23618.19
2023-05-18T19:19:34.297Z,-23620.88
2023-05-18T19:21:37.085Z,-23620.56
2023-05-18T19:23:39.781Z,-23618.81
2023-05-18T19:25:42.512Z,-23618.19
2023-05-18T19:27:45.261Z,-23619.13
2023-05-18T19:29:47.963Z,-23619.75
2023-05-18T19:31:50.703Z,-23614.72
2023-05-18T19:33:53.651Z,-23612.34
2023-05-18T19:35:58.879Z,-23611.88
2023-05-18T19:38:02.326Z,-23611.72
2023-05-18T19:40:05.816Z,-23607.44
2023-05-18T19:42:08.639Z,-23605.22
2023-05-18T19:44:11.675Z,-23605.38
2023-05-18T19:46:14.564Z,-23605.53
2023-05-18T19:48:17.497Z,-23603.97
2023-05-18T19:50:20.631Z,-23598.91
2023-05-18T19:52:24.740Z,-23602.22
2023-05-18T19:54:27.471Z,-23602.69
2023-05-18T19:56:30.365Z,-23597.00
2023-05-18T19:58:33.046Z,-23594.50
2023-05-18T20:00:37.978Z,-23593.53
2023-05-18T20:02:41.209Z,-23597.66
2023-05-18T20:04:44.246Z,-23599.84
2023-05-18T20:06:47.012Z,-23594.34
2023-05-18T20:08:51.130Z,-23592.28
2023-05-18T20:10:53.898Z,-23597.00
2023-05-18T20:12:56.600Z,-23594.81
2023-05-18T20:14:59.292Z,-23597.66
2023-05-18T20:17:02.168Z,-23594.16
2023-05-18T20:19:04.980Z,-23593.22
2023-05-18T20:21:07.720Z,-23591.00
2023-05-18T20:23:11.152Z,-23597.19
2023-05-18T20:25:15.442Z,-23595.13
2023-05-18T20:27:18.226Z,-23595.59
2023-05-18T20:29:21.082Z,-23597.00
2023-05-18T20:31:23.869Z,-23591.19
2023-05-18T20:33:26.655Z,-23591.19
2023-05-18T20:35:29.298Z,-23587.06
2023-05-18T20:37:34.064Z,-23588.50
2023-05-18T20:39:37.624Z,-23589.75
2023-05-18T20:41:41.686Z,-23589.75
2023-05-18T20:43:45.231Z,-23589.59
2023-05-18T20:45:49.388Z,-23588.63
2023-05-18T20:47:52.907Z,-23588.81
2023-05-18T20:49:58.230Z,-23589.75
2023-05-18T20:52:01.388Z,-23589.28
2023-05-18T20:54:04.384Z,-23592.91
2023-05-18T20:56:07.112Z,-23591.50
2023-05-18T20:58:11.203Z,-23593.53
2023-05-18T21:00:14.630Z,-23593.69
2023-05-18T21:02:19.511Z,-23590.53
2023-05-18T21:04:22.256Z,-23591.34
2023-05-18T21:06:25.547Z,-23590.22
2023-05-18T21:08:29.222Z,-23591.66
2023-05-18T21:10:32.650Z,-23590.22
2023-05-18T21:12:35.725Z,-23592.44
2023-05-18T21:14:39.870Z,-23588.16
2023-05-18T21:16:42.709Z,-23591.50
2023-05-18T21:18:45.594Z,-23588.81
2023-05-18T21:20:48.322Z,-23589.13
2023-05-18T21:22:51.360Z,-23589.13
2023-05-18T21:24:54.085Z,-23590.69
2023-05-18T21:26:56.841Z,-23592.28
2023-05-18T21:28:59.528Z,-23585.16
2023-05-18T21:31:04.188Z,-23587.38
2023-05-18T21:33:06.955Z,-23588.63
2023-05-18T21:35:09.771Z,-23585.66
2023-05-18T21:37:12.516Z,-23587.22
2023-05-18T21:39:15.246Z,-23586.59
2023-05-18T21:41:17.951Z,-23587.53
2023-05-18T21:43:20.640Z,-23585.00
2023-05-18T21:45:23.349Z,-23583.13
2023-05-18T21:47:27.516Z,-23580.91
2023-05-18T21:49:30.310Z,-23582.47
2023-05-18T21:51:33.377Z,-23582.16
2023-05-18T21:53:36.037Z,-23586.28
2023-05-18T21:55:38.812Z,-23582.47
2023-05-18T21:57:41.533Z,-23584.69
2023-05-18T21:59:44.276Z,-23579.31
2023-05-18T22:01:47.057Z,-23583.13
2023-05-18T22:03:51.340Z,-23582.63
2023-05-18T22:05:54.250Z,-23581.84
2023-05-18T22:07:58.803Z,-23578.22
2023-05-18T22:10:01.527Z,-23582.47
2023-05-18T22:12:04.594Z,-23580.59
2023-05-18T22:14:07.313Z,-23581.22
2023-05-18T22:16:10.063Z,-23579.16
2023-05-18T22:18:12.907Z,-23583.28
2023-05-18T22:20:17.239Z,-23576.47
2023-05-18T22:22:30.255Z,-23578.06
2023-05-18T22:24:33.470Z,-23581.22
2023-05-18T22:26:36.323Z,-23580.09
2023-05-18T22:28:39.051Z,-23577.56
2023-05-18T22:30:41.835Z,-23579.31
2023-05-18T22:32:46.220Z,-23578.38
2023-05-18T22:34:48.951Z,-23576.78
2023-05-18T22:36:53.046Z,-23577.56
2023-05-18T22:38:56.423Z,-23575.22
2023-05-18T22:40:59.234Z,-23573.16
2023-05-18T22:43:01.948Z,-23572.34
2023-05-18T22:45:05.162Z,-23565.25
2023-05-18T22:47:09.289Z,-23565.09
2023-05-18T22:49:12.097Z,-23561.94
2023-05-18T22:51:15.558Z,-23560.34
2023-05-18T22:53:19.750Z,-23562.25
2023-05-18T22:55:22.509Z,-23560.50
2023-05-18T22:57:25.165Z,-23560.34
2023-05-18T22:59:28.745Z,-23556.72
2023-05-18T23:01:31.531Z,-23555.28
2023-05-18T23:03:34.248Z,-23555.13
2023-05-18T23:05:41.115Z,-23550.53
2023-05-18T23:07:44.044Z,-23554.03
2023-05-18T23:09:48.101Z,-23550.53
2023-05-18T23:11:52.391Z,-23554.03
2023-05-18T23:13:55.598Z,-23553.06
2023-05-18T23:16:01.005Z,-23548.63
2023-05-18T23:18:04.054Z,-23548.00
2023-05-18T23:20:08.092Z,-23548.63
2023-05-18T23:22:11.333Z,-23545.47
2023-05-18T23:24:15.550Z,-23549.28
2023-05-18T23:26:19.695Z,-23551.66
2023-05-18T23:28:22.512Z,-23550.38
2023-05-18T23:30:25.426Z,-23549.91
2023-05-18T23:32:28.825Z,-23552.44
2023-05-18T23:34:32.886Z,-23556.53
2023-05-18T23:36:36.043Z,-23556.53
2023-05-18T23:38:40.913Z,-23554.03